sensor_id;sensor_type;location;lat;lon;timestamp;P1;durP1;ratioP1;P2;durP2;ratioP2
11203;SDS011;5659;49.408;11.116;2023-10-09T00:01:17;13.50;;;10.05;;
11203;SDS011;5659;49.408;11.116;2023-10-09T00:03:47;18.50;;;9.98;;
11203;SDS011;5659;49.408;11.116;2023-10-09T00:06:17;15.05;;;9.40;;
11203;SDS011;5659;49.408;11.116;2023-10-09T00:09:05;17.05;;;10.90;;
11203;SDS011;5659;49.408;11.116;2023-10-09T00:11:50;14.50;;;10.30;;
11203;SDS011;5659;49.408;11.116;2023-10-09T00:14:23;15.43;;;10.13;;
11203;SDS011;5659;49.408;11.116;2023-10-09T00:16:49;25.42;;;11.02;;
11203;SDS011;5659;49.408;11.116;2023-10-09T00:19:21;17.70;;;9.68;;
11203;SDS011;5659;49.408;11.116;2023-10-09T00:21:58;17.40;;;10.57;;
11203;SDS011;5659;49.408;11.116;2023-10-09T00:24:29;23.20;;;10.50;;
11203;SDS011;5659;49.408;11.116;2023-10-09T00:26:57;18.58;;;10.02;;
11203;SDS011;5659;49.408;11.116;2023-10-09T00:29:37;16.90;;;9.85;;
11203;SDS011;5659;49.408;11.116;2023-10-09T00:32:09;18.35;;;10.82;;
11203;SDS011;5659;49.408;11.116;2023-10-09T00:34:47;19.40;;;10.63;;
11203;SDS011;5659;49.408;11.116;2023-10-09T00:37:15;15.48;;;10.43;;
11203;SDS011;5659;49.408;11.116;2023-10-09T00:39:44;19.30;;;9.98;;
11203;SDS011;5659;49.408;11.116;2023-10-09T00:42:13;16.52;;;9.75;;
11203;SDS011;5659;49.408;11.116;2023-10-09T00:44:50;16.50;;;10.02;;
11203;SDS011;5659;49.408;11.116;2023-10-09T00:47:16;24.05;;;11.07;;
11203;SDS011;5659;49.408;11.116;2023-10-09T00:49:49;17.17;;;10.30;;
11203;SDS011;5659;49.408;11.116;2023-10-09T00:52:15;17.08;;;9.75;;
11203;SDS011;5659;49.408;11.116;2023-10-09T00:54:56;16.48;;;9.95;;
11203;SDS011;5659;49.408;11.116;2023-10-09T00:57:26;20.33;;;9.88;;
11203;SDS011;5659;49.408;11.116;2023-10-09T00:59:54;21.20;;;10.32;;
11203;SDS011;5659;49.408;11.116;2023-10-09T01:02:24;17.27;;;9.68;;
11203;SDS011;5659;49.408;11.116;2023-10-09T01:05:00;18.17;;;9.95;;
11203;SDS011;5659;49.408;11.116;2023-10-09T01:07:35;20.17;;;10.88;;
11203;SDS011;5659;49.408;11.116;2023-10-09T01:10:04;19.27;;;10.02;;
11203;SDS011;5659;49.408;11.116;2023-10-09T01:12:50;22.58;;;10.10;;
11203;SDS011;5659;49.408;11.116;2023-10-09T01:15:20;20.60;;;10.32;;
11203;SDS011;5659;49.408;11.116;2023-10-09T01:18:08;17.92;;;9.65;;
11203;SDS011;5659;49.408;11.116;2023-10-09T01:20:34;15.15;;;8.95;;
11203;SDS011;5659;49.408;11.116;2023-10-09T01:23:07;19.02;;;9.75;;
11203;SDS011;5659;49.408;11.116;2023-10-09T01:25:34;19.95;;;9.55;;
11203;SDS011;5659;49.408;11.116;2023-10-09T01:28:07;15.77;;;10.30;;
11203;SDS011;5659;49.408;11.116;2023-10-09T01:30:33;19.58;;;8.85;;
11203;SDS011;5659;49.408;11.116;2023-10-09T01:32:59;13.68;;;8.55;;
11203;SDS011;5659;49.408;11.116;2023-10-09T01:35:37;16.33;;;9.05;;
11203;SDS011;5659;49.408;11.116;2023-10-09T01:38:12;15.77;;;9.48;;
11203;SDS011;5659;49.408;11.116;2023-10-09T01:40:39;16.98;;;9.48;;
11203;SDS011;5659;49.408;11.116;2023-10-09T01:43:05;18.92;;;9.80;;
11203;SDS011;5659;49.408;11.116;2023-10-09T01:45:35;16.15;;;9.02;;
11203;SDS011;5659;49.408;11.116;2023-10-09T01:48:07;18.38;;;9.82;;
11203;SDS011;5659;49.408;11.116;2023-10-09T01:50:33;15.00;;;8.95;;
11203;SDS011;5659;49.408;11.116;2023-10-09T01:53:06;17.35;;;9.18;;
11203;SDS011;5659;49.408;11.116;2023-10-09T01:55:34;19.77;;;9.93;;
11203;SDS011;5659;49.408;11.116;2023-10-09T01:58:00;14.63;;;9.10;;
11203;SDS011;5659;49.408;11.116;2023-10-09T02:00:52;19.27;;;9.15;;
11203;SDS011;5659;49.408;11.116;2023-10-09T02:03:22;16.13;;;9.43;;
11203;SDS011;5659;49.408;11.116;2023-10-09T02:05:51;15.25;;;8.75;;
11203;SDS011;5659;49.408;11.116;2023-10-09T02:08:42;19.30;;;9.13;;
11203;SDS011;5659;49.408;11.116;2023-10-09T02:11:14;16.70;;;9.52;;
11203;SDS011;5659;49.408;11.116;2023-10-09T02:13:49;17.77;;;10.32;;
11203;SDS011;5659;49.408;11.116;2023-10-09T02:16:18;17.90;;;9.80;;
11203;SDS011;5659;49.408;11.116;2023-10-09T02:18:53;20.63;;;9.00;;
11203;SDS011;5659;49.408;11.116;2023-10-09T02:21:21;16.30;;;8.70;;
11203;SDS011;5659;49.408;11.116;2023-10-09T02:24:14;15.73;;;8.82;;
11203;SDS011;5659;49.408;11.116;2023-10-09T02:26:52;16.88;;;9.10;;
11203;SDS011;5659;49.408;11.116;2023-10-09T02:29:18;15.15;;;8.93;;
11203;SDS011;5659;49.408;11.116;2023-10-09T02:31:48;19.20;;;8.63;;
11203;SDS011;5659;49.408;11.116;2023-10-09T02:34:20;17.10;;;8.35;;
11203;SDS011;5659;49.408;11.116;2023-10-09T02:36:49;17.20;;;8.50;;
11203;SDS011;5659;49.408;11.116;2023-10-09T02:39:22;15.43;;;8.88;;
11203;SDS011;5659;49.408;11.116;2023-10-09T02:41:52;17.30;;;8.63;;
11203;SDS011;5659;49.408;11.116;2023-10-09T02:44:41;20.48;;;8.73;;
11203;SDS011;5659;49.408;11.116;2023-10-09T02:47:17;17.00;;;8.38;;
11203;SDS011;5659;49.408;11.116;2023-10-09T02:49:50;17.40;;;8.98;;
11203;SDS011;5659;49.408;11.116;2023-10-09T02:52:16;19.33;;;8.90;;
11203;SDS011;5659;49.408;11.116;2023-10-09T02:54:51;13.20;;;8.60;;
11203;SDS011;5659;49.408;11.116;2023-10-09T02:57:25;15.18;;;8.98;;
11203;SDS011;5659;49.408;11.116;2023-10-09T02:59:53;18.80;;;9.10;;
11203;SDS011;5659;49.408;11.116;2023-10-09T03:02:19;16.50;;;8.75;;
11203;SDS011;5659;49.408;11.116;2023-10-09T03:04:45;17.98;;;8.98;;
11203;SDS011;5659;49.408;11.116;2023-10-09T03:07:11;14.13;;;8.60;;
11203;SDS011;5659;49.408;11.116;2023-10-09T03:09:40;15.63;;;8.75;;
11203;SDS011;5659;49.408;11.116;2023-10-09T03:12:07;16.77;;;8.80;;
11203;SDS011;5659;49.408;11.116;2023-10-09T03:14:38;19.35;;;9.35;;
11203;SDS011;5659;49.408;11.116;2023-10-09T03:17:04;14.48;;;9.07;;
11203;SDS011;5659;49.408;11.116;2023-10-09T03:19:36;14.75;;;8.48;;
11203;SDS011;5659;49.408;11.116;2023-10-09T03:22:05;14.48;;;8.65;;
11203;SDS011;5659;49.408;11.116;2023-10-09T03:24:35;15.13;;;8.93;;
11203;SDS011;5659;49.408;11.116;2023-10-09T03:27:02;14.05;;;8.90;;
11203;SDS011;5659;49.408;11.116;2023-10-09T03:29:28;17.33;;;8.73;;
11203;SDS011;5659;49.408;11.116;2023-10-09T03:31:53;15.52;;;8.30;;
11203;SDS011;5659;49.408;11.116;2023-10-09T03:34:21;23.23;;;9.63;;
11203;SDS011;5659;49.408;11.116;2023-10-09T03:36:48;13.75;;;8.77;;
11203;SDS011;5659;49.408;11.116;2023-10-09T03:39:24;17.23;;;8.88;;
11203;SDS011;5659;49.408;11.116;2023-10-09T03:41:59;17.60;;;9.52;;
11203;SDS011;5659;49.408;11.116;2023-10-09T03:44:30;14.77;;;8.75;;
11203;SDS011;5659;49.408;11.116;2023-10-09T03:46:57;17.58;;;9.18;;
11203;SDS011;5659;49.408;11.116;2023-10-09T03:49:23;15.00;;;8.32;;
11203;SDS011;5659;49.408;11.116;2023-10-09T03:51:50;15.20;;;8.90;;
11203;SDS011;5659;49.408;11.116;2023-10-09T03:54:17;15.68;;;8.93;;
11203;SDS011;5659;49.408;11.116;2023-10-09T03:56:46;19.02;;;8.85;;
11203;SDS011;5659;49.408;11.116;2023-10-09T03:59:15;22.40;;;9.43;;
11203;SDS011;5659;49.408;11.116;2023-10-09T04:01:41;15.80;;;9.25;;
11203;SDS011;5659;49.408;11.116;2023-10-09T04:04:09;16.42;;;9.25;;
11203;SDS011;5659;49.408;11.116;2023-10-09T04:06:39;15.95;;;9.35;;
11203;SDS011;5659;49.408;11.116;2023-10-09T04:09:09;14.45;;;8.90;;
11203;SDS011;5659;49.408;11.116;2023-10-09T04:11:50;13.45;;;8.82;;
11203;SDS011;5659;49.408;11.116;2023-10-09T04:14:22;13.60;;;9.23;;
11203;SDS011;5659;49.408;11.116;2023-10-09T04:16:51;15.63;;;10.02;;
11203;SDS011;5659;49.408;11.116;2023-10-09T04:19:27;14.40;;;8.83;;
11203;SDS011;5659;49.408;11.116;2023-10-09T04:21:54;16.67;;;9.10;;
11203;SDS011;5659;49.408;11.116;2023-10-09T04:24:23;14.80;;;9.57;;
11203;SDS011;5659;49.408;11.116;2023-10-09T04:26:49;16.67;;;9.43;;
11203;SDS011;5659;49.408;11.116;2023-10-09T04:29:22;20.43;;;9.13;;
11203;SDS011;5659;49.408;11.116;2023-10-09T04:31:55;15.67;;;9.97;;
11203;SDS011;5659;49.408;11.116;2023-10-09T04:34:24;17.83;;;9.83;;
11203;SDS011;5659;49.408;11.116;2023-10-09T04:36:54;14.33;;;9.43;;
11203;SDS011;5659;49.408;11.116;2023-10-09T04:39:33;23.27;;;10.50;;
11203;SDS011;5659;49.408;11.116;2023-10-09T04:41:59;22.70;;;9.50;;
11203;SDS011;5659;49.408;11.116;2023-10-09T04:44:44;16.90;;;9.07;;
11203;SDS011;5659;49.408;11.116;2023-10-09T04:47:29;18.13;;;10.03;;
11203;SDS011;5659;49.408;11.116;2023-10-09T04:50:05;20.70;;;9.63;;
11203;SDS011;5659;49.408;11.116;2023-10-09T04:52:31;18.27;;;9.73;;
11203;SDS011;5659;49.408;11.116;2023-10-09T04:54:58;17.53;;;9.97;;
11203;SDS011;5659;49.408;11.116;2023-10-09T04:57:46;20.33;;;9.00;;
11203;SDS011;5659;49.408;11.116;2023-10-09T05:00:26;20.40;;;9.83;;
11203;SDS011;5659;49.408;11.116;2023-10-09T05:02:55;17.00;;;9.57;;
11203;SDS011;5659;49.408;11.116;2023-10-09T05:05:23;20.33;;;10.47;;
11203;SDS011;5659;49.408;11.116;2023-10-09T05:08:11;23.53;;;10.53;;
11203;SDS011;5659;49.408;11.116;2023-10-09T05:10:47;20.10;;;10.33;;
11203;SDS011;5659;49.408;11.116;2023-10-09T05:13:28;18.33;;;9.53;;
11203;SDS011;5659;49.408;11.116;2023-10-09T05:18:53;17.03;;;10.40;;
11203;SDS011;5659;49.408;11.116;2023-10-09T05:21:26;18.00;;;9.67;;
11203;SDS011;5659;49.408;11.116;2023-10-09T05:24:00;13.70;;;9.07;;
11203;SDS011;5659;49.408;11.116;2023-10-09T05:26:39;19.50;;;9.97;;
11203;SDS011;5659;49.408;11.116;2023-10-09T05:29:11;18.33;;;10.97;;
11203;SDS011;5659;49.408;11.116;2023-10-09T05:32:00;20.23;;;10.60;;
11203;SDS011;5659;49.408;11.116;2023-10-09T05:34:39;20.47;;;11.03;;
11203;SDS011;5659;49.408;11.116;2023-10-09T05:37:28;18.33;;;11.07;;
11203;SDS011;5659;49.408;11.116;2023-10-09T05:39:58;19.57;;;10.67;;
11203;SDS011;5659;49.408;11.116;2023-10-09T05:50:28;19.13;;;10.63;;
11203;SDS011;5659;49.408;11.116;2023-10-09T05:52:54;22.30;;;10.40;;
11203;SDS011;5659;49.408;11.116;2023-10-09T05:55:21;20.53;;;10.77;;
11203;SDS011;5659;49.408;11.116;2023-10-09T05:57:50;17.43;;;10.43;;
11203;SDS011;5659;49.408;11.116;2023-10-09T06:00:35;20.00;;;10.23;;
11203;SDS011;5659;49.408;11.116;2023-10-09T06:03:20;20.00;;;10.77;;
11203;SDS011;5659;49.408;11.116;2023-10-09T06:05:46;17.60;;;10.37;;
11203;SDS011;5659;49.408;11.116;2023-10-09T06:08:21;21.93;;;10.23;;
11203;SDS011;5659;49.408;11.116;2023-10-09T06:11:10;20.50;;;10.47;;
11203;SDS011;5659;49.408;11.116;2023-10-09T06:13:56;21.60;;;11.10;;
11203;SDS011;5659;49.408;11.116;2023-10-09T06:16:37;21.40;;;11.27;;
11203;SDS011;5659;49.408;11.116;2023-10-09T06:19:04;23.67;;;11.07;;
11203;SDS011;5659;49.408;11.116;2023-10-09T06:21:37;19.50;;;10.50;;
11203;SDS011;5659;49.408;11.116;2023-10-09T06:24:18;17.90;;;10.50;;
11203;SDS011;5659;49.408;11.116;2023-10-09T06:26:45;24.52;;;11.18;;
11203;SDS011;5659;49.408;11.116;2023-10-09T06:29:24;21.97;;;11.13;;
11203;SDS011;5659;49.408;11.116;2023-10-09T06:32:09;15.20;;;10.43;;
11203;SDS011;5659;49.408;11.116;2023-10-09T06:34:44;18.30;;;10.60;;
11203;SDS011;5659;49.408;11.116;2023-10-09T06:37:11;20.87;;;10.97;;
11203;SDS011;5659;49.408;11.116;2023-10-09T06:39:50;20.00;;;11.13;;
11203;SDS011;5659;49.408;11.116;2023-10-09T06:42:36;17.92;;;10.68;;
11203;SDS011;5659;49.408;11.116;2023-10-09T06:45:08;20.13;;;11.00;;
11203;SDS011;5659;49.408;11.116;2023-10-09T06:47:39;17.83;;;10.10;;
11203;SDS011;5659;49.408;11.116;2023-10-09T06:50:18;23.15;;;10.95;;
11203;SDS011;5659;49.408;11.116;2023-10-09T06:52:50;20.73;;;10.85;;
11203;SDS011;5659;49.408;11.116;2023-10-09T06:55:25;17.52;;;9.85;;
11203;SDS011;5659;49.408;11.116;2023-10-09T06:57:59;20.90;;;9.95;;
11203;SDS011;5659;49.408;11.116;2023-10-09T07:00:38;20.83;;;9.45;;
11203;SDS011;5659;49.408;11.116;2023-10-09T07:03:24;25.77;;;9.60;;
11203;SDS011;5659;49.408;11.116;2023-10-09T07:08:35;19.73;;;8.88;;
11203;SDS011;5659;49.408;11.116;2023-10-09T07:11:18;24.90;;;9.68;;
11203;SDS011;5659;49.408;11.116;2023-10-09T07:16:33;24.83;;;8.25;;
11203;SDS011;5659;49.408;11.116;2023-10-09T07:19:22;17.60;;;7.93;;
11203;SDS011;5659;49.408;11.116;2023-10-09T07:22:02;18.45;;;7.55;;
11203;SDS011;5659;49.408;11.116;2023-10-09T07:24:29;20.23;;;7.65;;
11203;SDS011;5659;49.408;11.116;2023-10-09T07:27:16;23.30;;;6.50;;
11203;SDS011;5659;49.408;11.116;2023-10-09T07:29:42;18.35;;;6.40;;
11203;SDS011;5659;49.408;11.116;2023-10-09T07:32:15;20.38;;;6.57;;
11203;SDS011;5659;49.408;11.116;2023-10-09T07:34:48;16.10;;;6.47;;
11203;SDS011;5659;49.408;11.116;2023-10-09T07:37:23;18.70;;;6.80;;
11203;SDS011;5659;49.408;11.116;2023-10-09T07:39:50;21.65;;;6.47;;
11203;SDS011;5659;49.408;11.116;2023-10-09T07:42:22;21.13;;;6.65;;
11203;SDS011;5659;49.408;11.116;2023-10-09T07:44:58;15.73;;;5.93;;
11203;SDS011;5659;49.408;11.116;2023-10-09T07:47:36;20.65;;;5.88;;
11203;SDS011;5659;49.408;11.116;2023-10-09T07:50:28;14.45;;;5.70;;
11203;SDS011;5659;49.408;11.116;2023-10-09T07:53:09;16.73;;;5.93;;
11203;SDS011;5659;49.408;11.116;2023-10-09T07:55:50;24.10;;;6.10;;
11203;SDS011;5659;49.408;11.116;2023-10-09T07:58:26;11.00;;;5.63;;
11203;SDS011;5659;49.408;11.116;2023-10-09T08:03:41;13.23;;;5.43;;
11203;SDS011;5659;49.408;11.116;2023-10-09T08:06:11;17.48;;;5.65;;
11203;SDS011;5659;49.408;11.116;2023-10-09T08:08:55;13.65;;;5.40;;
11203;SDS011;5659;49.408;11.116;2023-10-09T08:11:22;13.27;;;5.47;;
11203;SDS011;5659;49.408;11.116;2023-10-09T08:14:20;14.75;;;5.60;;
11203;SDS011;5659;49.408;11.116;2023-10-09T08:17:06;15.32;;;5.60;;
11203;SDS011;5659;49.408;11.116;2023-10-09T08:19:42;17.40;;;5.28;;
11203;SDS011;5659;49.408;11.116;2023-10-09T08:22:25;16.75;;;5.57;;
11203;SDS011;5659;49.408;11.116;2023-10-09T08:24:51;16.40;;;5.63;;
11203;SDS011;5659;49.408;11.116;2023-10-09T08:27:21;21.55;;;5.90;;
11203;SDS011;5659;49.408;11.116;2023-10-09T08:30:14;15.95;;;6.03;;
11203;SDS011;5659;49.408;11.116;2023-10-09T08:32:46;14.95;;;5.57;;
11203;SDS011;5659;49.408;11.116;2023-10-09T08:35:35;16.83;;;5.57;;
11203;SDS011;5659;49.408;11.116;2023-10-09T08:38:15;18.40;;;5.40;;
11203;SDS011;5659;49.408;11.116;2023-10-09T08:40:48;19.98;;;4.88;;
11203;SDS011;5659;49.408;11.116;2023-10-09T08:43:16;25.75;;;5.90;;
11203;SDS011;5659;49.408;11.116;2023-10-09T08:45:45;21.80;;;6.53;;
11203;SDS011;5659;49.408;11.116;2023-10-09T08:48:11;22.17;;;6.35;;
11203;SDS011;5659;49.408;11.116;2023-10-09T08:50:41;29.70;;;6.28;;
11203;SDS011;5659;49.408;11.116;2023-10-09T08:53:10;22.65;;;5.97;;
11203;SDS011;5659;49.408;11.116;2023-10-09T08:55:37;14.70;;;6.20;;
11203;SDS011;5659;49.408;11.116;2023-10-09T08:58:04;19.70;;;6.32;;
11203;SDS011;5659;49.408;11.116;2023-10-09T09:00:49;30.70;;;7.10;;
11203;SDS011;5659;49.408;11.116;2023-10-09T09:03:15;18.58;;;5.85;;
11203;SDS011;5659;49.408;11.116;2023-10-09T09:05:45;24.33;;;6.72;;
11203;SDS011;5659;49.408;11.116;2023-10-09T09:08:21;16.90;;;6.13;;
11203;SDS011;5659;49.408;11.116;2023-10-09T09:11:00;14.57;;;5.60;;
11203;SDS011;5659;49.408;11.116;2023-10-09T09:13:46;21.50;;;5.20;;
11203;SDS011;5659;49.408;11.116;2023-10-09T09:16:21;14.90;;;5.05;;
11203;SDS011;5659;49.408;11.116;2023-10-09T09:18:55;30.05;;;6.15;;
11203;SDS011;5659;49.408;11.116;2023-10-09T09:21:35;12.88;;;4.85;;
11203;SDS011;5659;49.408;11.116;2023-10-09T09:24:09;31.40;;;5.13;;
11203;SDS011;5659;49.408;11.116;2023-10-09T09:26:44;17.48;;;4.78;;
11203;SDS011;5659;49.408;11.116;2023-10-09T09:29:14;15.90;;;5.45;;
11203;SDS011;5659;49.408;11.116;2023-10-09T09:31:56;23.38;;;5.55;;
11203;SDS011;5659;49.408;11.116;2023-10-09T09:34:22;16.70;;;5.43;;
11203;SDS011;5659;49.408;11.116;2023-10-09T09:36:54;16.60;;;4.85;;
11203;SDS011;5659;49.408;11.116;2023-10-09T09:39:21;15.80;;;4.50;;
11203;SDS011;5659;49.408;11.116;2023-10-09T09:41:52;18.80;;;4.95;;
11203;SDS011;5659;49.408;11.116;2023-10-09T09:44:19;12.80;;;5.07;;
11203;SDS011;5659;49.408;11.116;2023-10-09T09:46:46;42.95;;;5.35;;
11203;SDS011;5659;49.408;11.116;2023-10-09T09:49:13;46.30;;;6.28;;
11203;SDS011;5659;49.408;11.116;2023-10-09T09:51:44;28.40;;;5.30;;
11203;SDS011;5659;49.408;11.116;2023-10-09T09:54:15;27.48;;;6.25;;
11203;SDS011;5659;49.408;11.116;2023-10-09T09:56:44;31.65;;;5.32;;
11203;SDS011;5659;49.408;11.116;2023-10-09T09:59:17;34.00;;;5.55;;
11203;SDS011;5659;49.408;11.116;2023-10-09T10:01:47;20.13;;;5.20;;
11203;SDS011;5659;49.408;11.116;2023-10-09T10:04:22;12.57;;;4.10;;
11203;SDS011;5659;49.408;11.116;2023-10-09T10:06:50;21.55;;;5.72;;
11203;SDS011;5659;49.408;11.116;2023-10-09T10:09:33;20.73;;;5.88;;
11203;SDS011;5659;49.408;11.116;2023-10-09T10:12:03;14.88;;;4.97;;
11203;SDS011;5659;49.408;11.116;2023-10-09T10:18:02;17.92;;;5.68;;
11203;SDS011;5659;49.408;11.116;2023-10-09T10:20:24;15.90;;;4.32;;
11203;SDS011;5659;49.408;11.116;2023-10-09T10:22:49;14.85;;;4.35;;
11203;SDS011;5659;49.408;11.116;2023-10-09T10:30:53;17.80;;;4.70;;
11203;SDS011;5659;49.408;11.116;2023-10-09T10:33:19;18.23;;;4.95;;
11203;SDS011;5659;49.408;11.116;2023-10-09T10:35:47;18.23;;;4.60;;
11203;SDS011;5659;49.408;11.116;2023-10-09T10:40:50;16.48;;;4.38;;
11203;SDS011;5659;49.408;11.116;2023-10-09T10:43:25;16.77;;;5.05;;
11203;SDS011;5659;49.408;11.116;2023-10-09T10:46:05;24.27;;;5.45;;
11203;SDS011;5659;49.408;11.116;2023-10-09T10:48:39;20.95;;;4.50;;
11203;SDS011;5659;49.408;11.116;2023-10-09T10:51:05;20.50;;;5.13;;
11203;SDS011;5659;49.408;11.116;2023-10-09T10:53:31;17.17;;;5.28;;
11203;SDS011;5659;49.408;11.116;2023-10-09T10:56:12;21.92;;;5.35;;
11203;SDS011;5659;49.408;11.116;2023-10-09T10:58:42;17.65;;;5.22;;
11203;SDS011;5659;49.408;11.116;2023-10-09T11:01:30;24.42;;;5.65;;
11203;SDS011;5659;49.408;11.116;2023-10-09T11:04:19;16.55;;;5.20;;
11203;SDS011;5659;49.408;11.116;2023-10-09T11:07:12;18.23;;;5.43;;
11203;SDS011;5659;49.408;11.116;2023-10-09T11:15:07;20.38;;;5.10;;
11203;SDS011;5659;49.408;11.116;2023-10-09T11:18:00;23.80;;;5.03;;
11203;SDS011;5659;49.408;11.116;2023-10-09T11:20:30;20.75;;;4.80;;
11203;SDS011;5659;49.408;11.116;2023-10-09T11:23:00;17.48;;;4.65;;
11203;SDS011;5659;49.408;11.116;2023-10-09T11:25:39;22.80;;;5.45;;
11203;SDS011;5659;49.408;11.116;2023-10-09T11:28:24;19.17;;;5.30;;
11203;SDS011;5659;49.408;11.116;2023-10-09T11:30:54;18.42;;;5.15;;
11203;SDS011;5659;49.408;11.116;2023-10-09T11:33:20;25.05;;;5.22;;
11203;SDS011;5659;49.408;11.116;2023-10-09T11:35:56;17.90;;;5.43;;
11203;SDS011;5659;49.408;11.116;2023-10-09T11:38:23;14.25;;;4.78;;
11203;SDS011;5659;49.408;11.116;2023-10-09T11:40:49;22.40;;;4.97;;
11203;SDS011;5659;49.408;11.116;2023-10-09T11:43:15;18.33;;;5.18;;
11203;SDS011;5659;49.408;11.116;2023-10-09T11:45:41;19.65;;;5.30;;
11203;SDS011;5659;49.408;11.116;2023-10-09T11:48:19;16.52;;;5.18;;
11203;SDS011;5659;49.408;11.116;2023-10-09T11:51:12;18.83;;;4.97;;
11203;SDS011;5659;49.408;11.116;2023-10-09T11:53:44;16.90;;;5.28;;
11203;SDS011;5659;49.408;11.116;2023-10-09T11:56:30;18.27;;;5.00;;
11203;SDS011;5659;49.408;11.116;2023-10-09T11:58:57;14.50;;;5.38;;
11203;SDS011;5659;49.408;11.116;2023-10-09T12:01:29;17.77;;;5.10;;
11203;SDS011;5659;49.408;11.116;2023-10-09T12:04:00;23.27;;;4.80;;
11203;SDS011;5659;49.408;11.116;2023-10-09T12:06:27;22.75;;;5.55;;
11203;SDS011;5659;49.408;11.116;2023-10-09T12:08:57;26.65;;;5.85;;
11203;SDS011;5659;49.408;11.116;2023-10-09T12:11:23;18.67;;;4.85;;
11203;SDS011;5659;49.408;11.116;2023-10-09T12:13:56;24.50;;;5.40;;
11203;SDS011;5659;49.408;11.116;2023-10-09T12:16:23;24.17;;;5.32;;
11203;SDS011;5659;49.408;11.116;2023-10-09T12:18:53;24.98;;;4.88;;
11203;SDS011;5659;49.408;11.116;2023-10-09T12:21:20;14.07;;;5.60;;
11203;SDS011;5659;49.408;11.116;2023-10-09T12:23:46;17.80;;;4.80;;
11203;SDS011;5659;49.408;11.116;2023-10-09T12:26:12;18.50;;;4.57;;
11203;SDS011;5659;49.408;11.116;2023-10-09T12:28:42;14.10;;;4.97;;
11203;SDS011;5659;49.408;11.116;2023-10-09T12:31:14;19.13;;;5.18;;
11203;SDS011;5659;49.408;11.116;2023-10-09T12:33:41;17.95;;;4.72;;
11203;SDS011;5659;49.408;11.116;2023-10-09T12:36:13;20.45;;;5.55;;
11203;SDS011;5659;49.408;11.116;2023-10-09T12:38:49;19.30;;;5.70;;
11203;SDS011;5659;49.408;11.116;2023-10-09T12:41:23;17.52;;;4.65;;
11203;SDS011;5659;49.408;11.116;2023-10-09T12:43:53;17.58;;;5.00;;
11203;SDS011;5659;49.408;11.116;2023-10-09T12:46:20;18.20;;;4.80;;
11203;SDS011;5659;49.408;11.116;2023-10-09T12:48:50;22.13;;;5.65;;
11203;SDS011;5659;49.408;11.116;2023-10-09T12:51:19;28.67;;;5.13;;
11203;SDS011;5659;49.408;11.116;2023-10-09T12:53:45;18.90;;;5.15;;
11203;SDS011;5659;49.408;11.116;2023-10-09T12:56:14;21.50;;;5.22;;
11203;SDS011;5659;49.408;11.116;2023-10-09T12:58:43;18.25;;;5.38;;
11203;SDS011;5659;49.408;11.116;2023-10-09T13:01:18;21.27;;;5.25;;
11203;SDS011;5659;49.408;11.116;2023-10-09T13:03:45;19.63;;;5.32;;
11203;SDS011;5659;49.408;11.116;2023-10-09T13:06:14;19.42;;;5.22;;
11203;SDS011;5659;49.408;11.116;2023-10-09T13:08:40;24.42;;;5.20;;
11203;SDS011;5659;49.408;11.116;2023-10-09T13:11:10;16.98;;;5.00;;
11203;SDS011;5659;49.408;11.116;2023-10-09T13:13:40;18.75;;;4.85;;
11203;SDS011;5659;49.408;11.116;2023-10-09T13:16:08;16.15;;;4.93;;
11203;SDS011;5659;49.408;11.116;2023-10-09T13:18:37;17.88;;;5.22;;
11203;SDS011;5659;49.408;11.116;2023-10-09T13:21:03;18.42;;;5.00;;
11203;SDS011;5659;49.408;11.116;2023-10-09T13:23:30;11.23;;;4.65;;
11203;SDS011;5659;49.408;11.116;2023-10-09T13:26:11;17.40;;;5.30;;
11203;SDS011;5659;49.408;11.116;2023-10-09T13:28:44;14.10;;;4.93;;
11203;SDS011;5659;49.408;11.116;2023-10-09T13:31:11;13.38;;;4.82;;
11203;SDS011;5659;49.408;11.116;2023-10-09T13:33:39;17.63;;;5.68;;
11203;SDS011;5659;49.408;11.116;2023-10-09T13:36:05;20.95;;;5.93;;
11203;SDS011;5659;49.408;11.116;2023-10-09T13:38:41;18.08;;;5.53;;
11203;SDS011;5659;49.408;11.116;2023-10-09T13:41:11;13.85;;;4.70;;
11203;SDS011;5659;49.408;11.116;2023-10-09T13:43:42;26.02;;;5.45;;
11203;SDS011;5659;49.408;11.116;2023-10-09T13:46:12;17.92;;;5.32;;
11203;SDS011;5659;49.408;11.116;2023-10-09T13:48:42;25.92;;;5.90;;
11203;SDS011;5659;49.408;11.116;2023-10-09T13:51:11;20.67;;;4.60;;
11203;SDS011;5659;49.408;11.116;2023-10-09T13:53:48;12.80;;;4.95;;
11203;SDS011;5659;49.408;11.116;2023-10-09T13:56:14;17.08;;;4.53;;
11203;SDS011;5659;49.408;11.116;2023-10-09T13:58:52;16.60;;;4.97;;
11203;SDS011;5659;49.408;11.116;2023-10-09T14:01:20;14.30;;;4.70;;
11203;SDS011;5659;49.408;11.116;2023-10-09T14:03:53;15.13;;;4.90;;
11203;SDS011;5659;49.408;11.116;2023-10-09T14:06:19;15.50;;;5.13;;
11203;SDS011;5659;49.408;11.116;2023-10-09T14:08:55;22.27;;;5.25;;
11203;SDS011;5659;49.408;11.116;2023-10-09T14:11:21;12.57;;;4.57;;
11203;SDS011;5659;49.408;11.116;2023-10-09T14:13:47;10.45;;;4.80;;
11203;SDS011;5659;49.408;11.116;2023-10-09T14:16:13;8.82;;;4.22;;
11203;SDS011;5659;49.408;11.116;2023-10-09T14:18:58;12.45;;;5.07;;
11203;SDS011;5659;49.408;11.116;2023-10-09T14:21:32;22.73;;;5.45;;
11203;SDS011;5659;49.408;11.116;2023-10-09T14:24:03;16.60;;;5.43;;
11203;SDS011;5659;49.408;11.116;2023-10-09T14:26:29;8.63;;;4.57;;
11203;SDS011;5659;49.408;11.116;2023-10-09T14:28:56;12.43;;;4.40;;
11203;SDS011;5659;49.408;11.116;2023-10-09T14:31:25;20.20;;;4.60;;
11203;SDS011;5659;49.408;11.116;2023-10-09T14:33:53;11.70;;;4.70;;
11203;SDS011;5659;49.408;11.116;2023-10-09T14:36:20;15.23;;;4.55;;
11203;SDS011;5659;49.408;11.116;2023-10-09T14:38:47;17.95;;;5.63;;
11203;SDS011;5659;49.408;11.116;2023-10-09T14:41:17;12.38;;;4.70;;
11203;SDS011;5659;49.408;11.116;2023-10-09T14:43:46;24.42;;;5.03;;
11203;SDS011;5659;49.408;11.116;2023-10-09T14:46:13;12.95;;;5.03;;
11203;SDS011;5659;49.408;11.116;2023-10-09T14:48:39;11.93;;;5.22;;
11203;SDS011;5659;49.408;11.116;2023-10-09T14:51:11;12.40;;;4.82;;
11203;SDS011;5659;49.408;11.116;2023-10-09T14:53:38;12.27;;;5.05;;
11203;SDS011;5659;49.408;11.116;2023-10-09T14:56:05;15.60;;;5.15;;
11203;SDS011;5659;49.408;11.116;2023-10-09T14:58:34;15.20;;;5.05;;
11203;SDS011;5659;49.408;11.116;2023-10-09T15:01:07;19.75;;;4.63;;
11203;SDS011;5659;49.408;11.116;2023-10-09T15:03:35;11.35;;;4.63;;
11203;SDS011;5659;49.408;11.116;2023-10-09T15:06:02;10.38;;;4.35;;
11203;SDS011;5659;49.408;11.116;2023-10-09T15:08:28;13.15;;;4.57;;
11203;SDS011;5659;49.408;11.116;2023-10-09T15:10:55;19.25;;;5.35;;
11203;SDS011;5659;49.408;11.116;2023-10-09T15:13:21;13.85;;;5.28;;
11203;SDS011;5659;49.408;11.116;2023-10-09T15:15:53;15.18;;;5.35;;
11203;SDS011;5659;49.408;11.116;2023-10-09T15:18:19;12.95;;;5.45;;
11203;SDS011;5659;49.408;11.116;2023-10-09T15:20:46;15.93;;;5.45;;
11203;SDS011;5659;49.408;11.116;2023-10-09T15:23:12;17.40;;;5.25;;
11203;SDS011;5659;49.408;11.116;2023-10-09T15:25:38;14.45;;;5.15;;
11203;SDS011;5659;49.408;11.116;2023-10-09T15:28:07;10.75;;;4.85;;
11203;SDS011;5659;49.408;11.116;2023-10-09T15:30:34;14.80;;;5.60;;
11203;SDS011;5659;49.408;11.116;2023-10-09T15:33:03;13.65;;;5.25;;
11203;SDS011;5659;49.408;11.116;2023-10-09T15:35:30;12.10;;;5.03;;
11203;SDS011;5659;49.408;11.116;2023-10-09T15:37:58;14.57;;;5.30;;
11203;SDS011;5659;49.408;11.116;2023-10-09T15:40:28;12.68;;;5.20;;